sensor_id;sensor_type;location;lat;lon;timestamp;temperature;humidity
76751;SHT31;65216;51.090;-115.352;2023-07-02T00:00:10;24.17;34.35
76751;SHT31;65216;51.090;-115.352;2023-07-02T00:02:38;24.15;34.28
76751;SHT31;65216;51.090;-115.352;2023-07-02T00:05:05;24.14;34.21
76751;SHT31;65216;51.090;-115.352;2023-07-02T00:07:36;24.12;34.15
76751;SHT31;65216;51.090;-115.352;2023-07-02T00:10:03;24.11;34.20
76751;SHT31;65216;51.090;-115.352;2023-07-02T00:12:31;24.13;34.14
76751;SHT31;65216;51.090;-115.352;2023-07-02T00:14:58;24.12;34.04
76751;SHT31;65216;51.090;-115.352;2023-07-02T00:17:26;24.11;33.99
76751;SHT31;65216;51.090;-115.352;2023-07-02T00:19:54;24.10;33.94
76751;SHT31;65216;51.090;-115.352;2023-07-02T00:22:21;24.08;33.82
76751;SHT31;65216;51.090;-115.352;2023-07-02T00:24:48;24.07;33.75
76751;SHT31;65216;51.090;-115.352;2023-07-02T00:27:16;24.06;33.68
76751;SHT31;65216;51.090;-115.352;2023-07-02T00:29:45;24.05;33.71
76751;SHT31;65216;51.090;-115.352;2023-07-02T00:32:12;24.05;33.67
76751;SHT31;65216;51.090;-115.352;2023-07-02T00:34:41;24.05;33.63
76751;SHT31;65216;51.090;-115.352;2023-07-02T00:37:08;24.07;33.50
76751;SHT31;65216;51.090;-115.352;2023-07-02T00:39:35;24.08;33.45
76751;SHT31;65216;51.090;-115.352;2023-07-02T00:42:05;24.10;33.30
76751;SHT31;65216;51.090;-115.352;2023-07-02T00:44:33;24.10;33.23
76751;SHT31;65216;51.090;-115.352;2023-07-02T00:47:09;24.11;33.18
76751;SHT31;65216;51.090;-115.352;2023-07-02T00:49:39;24.14;33.02
76751;SHT31;65216;51.090;-115.352;2023-07-02T00:52:06;24.16;32.90
76751;SHT31;65216;51.090;-115.352;2023-07-02T00:54:33;24.16;32.72
76751;SHT31;65216;51.090;-115.352;2023-07-02T00:57:01;24.17;32.72
76751;SHT31;65216;51.090;-115.352;2023-07-02T00:59:32;24.18;32.66
76751;SHT31;65216;51.090;-115.352;2023-07-02T01:02:01;24.20;32.62
76751;SHT31;65216;51.090;-115.352;2023-07-02T01:04:28;24.22;32.50
76751;SHT31;65216;51.090;-115.352;2023-07-02T01:06:58;24.23;32.34
76751;SHT31;65216;51.090;-115.352;2023-07-02T01:09:34;24.24;32.30
76751;SHT31;65216;51.090;-115.352;2023-07-02T01:12:04;24.25;32.21
76751;SHT31;65216;51.090;-115.352;2023-07-02T01:14:40;24.26;32.16
76751;SHT31;65216;51.090;-115.352;2023-07-02T01:17:18;24.29;32.02
76751;SHT31;65216;51.090;-115.352;2023-07-02T01:22:19;24.30;31.87
76751;SHT31;65216;51.090;-115.352;2023-07-02T01:24:52;24.32;31.85
76751;SHT31;65216;51.090;-115.352;2023-07-02T01:27:20;24.33;31.76
76751;SHT31;65216;51.090;-115.352;2023-07-02T01:29:51;24.32;31.67
76751;SHT31;65216;51.090;-115.352;2023-07-02T01:32:19;24.33;31.48
76751;SHT31;65216;51.090;-115.352;2023-07-02T01:34:47;24.33;31.40
76751;SHT31;65216;51.090;-115.352;2023-07-02T01:37:15;24.31;31.32
76751;SHT31;65216;51.090;-115.352;2023-07-02T01:39:43;24.30;31.32
76751;SHT31;65216;51.090;-115.352;2023-07-02T01:42:14;24.29;31.32
76751;SHT31;65216;51.090;-115.352;2023-07-02T01:44:44;24.29;31.22
76751;SHT31;65216;51.090;-115.352;2023-07-02T01:47:16;24.27;31.25
76751;SHT31;65216;51.090;-115.352;2023-07-02T01:49:45;24.22;31.53
76751;SHT31;65216;51.090;-115.352;2023-07-02T01:52:15;24.20;31.68
76751;SHT31;65216;51.090;-115.352;2023-07-02T01:54:43;24.20;31.93
76751;SHT31;65216;51.090;-115.352;2023-07-02T01:57:11;24.21;32.26
76751;SHT31;65216;51.090;-115.352;2023-07-02T01:59:39;24.20;32.59
76751;SHT31;65216;51.090;-115.352;2023-07-02T02:02:05;24.17;32.82
76751;SHT31;65216;51.090;-115.352;2023-07-02T02:04:35;24.14;33.07
76751;SHT31;65216;51.090;-115.352;2023-07-02T02:07:02;24.11;33.31
76751;SHT31;65216;51.090;-115.352;2023-07-02T02:09:29;24.10;33.41
76751;SHT31;65216;51.090;-115.352;2023-07-02T02:11:57;24.08;33.64
76751;SHT31;65216;51.090;-115.352;2023-07-02T02:14:24;24.08;33.82
76751;SHT31;65216;51.090;-115.352;2023-07-02T02:16:51;24.07;34.07
76751;SHT31;65216;51.090;-115.352;2023-07-02T02:19:18;24.04;34.36
76751;SHT31;65216;51.090;-115.352;2023-07-02T02:21:45;24.02;34.55
76751;SHT31;65216;51.090;-115.352;2023-07-02T02:24:12;23.99;34.68
76751;SHT31;65216;51.090;-115.352;2023-07-02T02:26:39;23.96;34.81
76751;SHT31;65216;51.090;-115.352;2023-07-02T02:29:08;23.93;35.04
76751;SHT31;65216;51.090;-115.352;2023-07-02T02:31:35;23.91;35.24
76751;SHT31;65216;51.090;-115.352;2023-07-02T02:34:03;23.88;35.45
76751;SHT31;65216;51.090;-115.352;2023-07-02T02:36:30;23.85;35.77
76751;SHT31;65216;51.090;-115.352;2023-07-02T02:38:57;23.84;36.08
76751;SHT31;65216;51.090;-115.352;2023-07-02T02:41:24;23.80;36.36
76751;SHT31;65216;51.090;-115.352;2023-07-02T02:43:54;23.78;37.02
76751;SHT31;65216;51.090;-115.352;2023-07-02T02:46:24;23.75;37.34
76751;SHT31;65216;51.090;-115.352;2023-07-02T02:48:53;23.72;37.99
76751;SHT31;65216;51.090;-115.352;2023-07-02T02:51:21;23.69;38.10
76751;SHT31;65216;51.090;-115.352;2023-07-02T02:53:50;23.68;38.13
76751;SHT31;65216;51.090;-115.352;2023-07-02T02:56:17;23.67;38.45
76751;SHT31;65216;51.090;-115.352;2023-07-02T02:58:44;23.65;38.54
76751;SHT31;65216;51.090;-115.352;2023-07-02T03:01:14;23.65;38.74
76751;SHT31;65216;51.090;-115.352;2023-07-02T03:03:41;23.63;38.96
76751;SHT31;65216;51.090;-115.352;2023-07-02T03:06:11;23.61;39.30
76751;SHT31;65216;51.090;-115.352;2023-07-02T03:08:43;23.59;39.56
76751;SHT31;65216;51.090;-115.352;2023-07-02T03:11:10;23.57;39.97
76751;SHT31;65216;51.090;-115.352;2023-07-02T03:13:37;23.55;39.96
76751;SHT31;65216;51.090;-115.352;2023-07-02T03:16:04;23.54;40.19
76751;SHT31;65216;51.090;-115.352;2023-07-02T03:18:31;23.53;40.17
76751;SHT31;65216;51.090;-115.352;2023-07-02T03:20:59;23.52;40.14
76751;SHT31;65216;51.090;-115.352;2023-07-02T03:23:26;23.52;40.14
76751;SHT31;65216;51.090;-115.352;2023-07-02T03:25:53;23.52;40.32
76751;SHT31;65216;51.090;-115.352;2023-07-02T03:28:20;23.49;40.50
76751;SHT31;65216;51.090;-115.352;2023-07-02T03:30:49;23.49;40.61
76751;SHT31;65216;51.090;-115.352;2023-07-02T03:33:17;23.47;40.77
76751;SHT31;65216;51.090;-115.352;2023-07-02T03:35:43;23.47;40.79
76751;SHT31;65216;51.090;-115.352;2023-07-02T03:38:10;23.45;40.91
76751;SHT31;65216;51.090;-115.352;2023-07-02T03:40:37;23.43;40.95
76751;SHT31;65216;51.090;-115.352;2023-07-02T03:43:04;23.43;40.98
76751;SHT31;65216;51.090;-115.352;2023-07-02T03:45:31;23.43;41.05
76751;SHT31;65216;51.090;-115.352;2023-07-02T03:47:58;23.41;41.01
76751;SHT31;65216;51.090;-115.352;2023-07-02T03:50:25;23.40;41.07
76751;SHT31;65216;51.090;-115.352;2023-07-02T03:52:52;23.39;41.08
76751;SHT31;65216;51.090;-115.352;2023-07-02T03:55:19;23.39;41.13
76751;SHT31;65216;51.090;-115.352;2023-07-02T03:57:46;23.38;41.19
76751;SHT31;65216;51.090;-115.352;2023-07-02T04:00:13;23.37;41.21
76751;SHT31;65216;51.090;-115.352;2023-07-02T04:02:40;23.35;41.51
76751;SHT31;65216;51.090;-115.352;2023-07-02T04:05:07;23.33;41.59
76751;SHT31;65216;51.090;-115.352;2023-07-02T04:07:35;23.31;41.61
76751;SHT31;65216;51.090;-115.352;2023-07-02T04:10:05;23.30;41.68
76751;SHT31;65216;51.090;-115.352;2023-07-02T04:12:32;23.30;41.76
76751;SHT31;65216;51.090;-115.352;2023-07-02T04:15:00;23.29;41.94
76751;SHT31;65216;51.090;-115.352;2023-07-02T04:17:27;23.28;42.09
76751;SHT31;65216;51.090;-115.352;2023-07-02T04:19:54;23.26;42.07
76751;SHT31;65216;51.090;-115.352;2023-07-02T04:22:23;23.26;42.02
76751;SHT31;65216;51.090;-115.352;2023-07-02T04:24:49;23.25;42.09
76751;SHT31;65216;51.090;-115.352;2023-07-02T04:27:16;23.23;42.14
76751;SHT31;65216;51.090;-115.352;2023-07-02T04:29:44;23.22;42.08
76751;SHT31;65216;51.090;-115.352;2023-07-02T04:32:11;23.21;42.09
76751;SHT31;65216;51.090;-115.352;2023-07-02T04:34:38;23.20;42.04
76751;SHT31;65216;51.090;-115.352;2023-07-02T04:37:08;23.18;42.08
76751;SHT31;65216;51.090;-115.352;2023-07-02T04:39:40;23.18;42.14
76751;SHT31;65216;51.090;-115.352;2023-07-02T04:42:07;23.16;42.13
76751;SHT31;65216;51.090;-115.352;2023-07-02T04:44:35;23.14;42.22
76751;SHT31;65216;51.090;-115.352;2023-07-02T04:47:02;23.13;42.33
76751;SHT31;65216;51.090;-115.352;2023-07-02T04:49:32;23.13;42.52
76751;SHT31;65216;51.090;-115.352;2023-07-02T04:51:59;23.11;42.66
76751;SHT31;65216;51.090;-115.352;2023-07-02T04:54:26;23.11;42.61
76751;SHT31;65216;51.090;-115.352;2023-07-02T04:56:53;23.09;42.61
76751;SHT31;65216;51.090;-115.352;2023-07-02T04:59:21;23.08;42.51
76751;SHT31;65216;51.090;-115.352;2023-07-02T05:01:48;23.07;42.50
76751;SHT31;65216;51.090;-115.352;2023-07-02T05:04:18;23.06;42.43
76751;SHT31;65216;51.090;-115.352;2023-07-02T05:06:45;23.05;42.41
76751;SHT31;65216;51.090;-115.352;2023-07-02T05:09:12;23.03;42.34
76751;SHT31;65216;51.090;-115.352;2023-07-02T05:11:39;23.01;42.31
76751;SHT31;65216;51.090;-115.352;2023-07-02T05:14:06;23.00;42.28
76751;SHT31;65216;51.090;-115.352;2023-07-02T05:16:35;22.99;42.20
76751;SHT31;65216;51.090;-115.352;2023-07-02T05:19:02;22.99;42.20
76751;SHT31;65216;51.090;-115.352;2023-07-02T05:21:29;22.97;42.19
76751;SHT31;65216;51.090;-115.352;2023-07-02T05:23:56;22.95;42.13
76751;SHT31;65216;51.090;-115.352;2023-07-02T05:26:23;22.94;42.15
76751;SHT31;65216;51.090;-115.352;2023-07-02T05:28:53;22.93;42.26
76751;SHT31;65216;51.090;-115.352;2023-07-02T05:31:20;22.93;42.25
76751;SHT31;65216;51.090;-115.352;2023-07-02T05:33:47;22.92;42.21
76751;SHT31;65216;51.090;-115.352;2023-07-02T05:36:13;22.90;42.19
76751;SHT31;65216;51.090;-115.352;2023-07-02T05:38:41;22.91;42.20
76751;SHT31;65216;51.090;-115.352;2023-07-02T05:41:08;22.91;42.16
76751;SHT31;65216;51.090;-115.352;2023-07-02T05:43:35;22.90;42.10
76751;SHT31;65216;51.090;-115.352;2023-07-02T05:46:05;22.89;42.05
76751;SHT31;65216;51.090;-115.352;2023-07-02T05:48:32;22.88;42.00
76751;SHT31;65216;51.090;-115.352;2023-07-02T05:50:59;22.88;41.98
76751;SHT31;65216;51.090;-115.352;2023-07-02T05:53:26;22.86;41.90
76751;SHT31;65216;51.090;-115.352;2023-07-02T05:55:53;22.85;41.90
76751;SHT31;65216;51.090;-115.352;2023-07-02T05:58:20;22.83;41.87
76751;SHT31;65216;51.090;-115.352;2023-07-02T06:00:47;22.82;41.82
76751;SHT31;65216;51.090;-115.352;2023-07-02T06:03:15;22.81;41.81
76751;SHT31;65216;51.090;-115.352;2023-07-02T06:05:49;22.80;41.80
76751;SHT31;65216;51.090;-115.352;2023-07-02T06:08:17;22.80;41.78
76751;SHT31;65216;51.090;-115.352;2023-07-02T06:10:47;22.79;41.73
76751;SHT31;65216;51.090;-115.352;2023-07-02T06:13:15;22.80;41.71
76751;SHT31;65216;51.090;-115.352;2023-07-02T06:15:43;22.80;41.67
76751;SHT31;65216;51.090;-115.352;2023-07-02T06:18:12;22.79;41.62
76751;SHT31;65216;51.090;-115.352;2023-07-02T06:20:39;22.80;41.60
76751;SHT31;65216;51.090;-115.352;2023-07-02T06:23:06;22.79;41.53
76751;SHT31;65216;51.090;-115.352;2023-07-02T06:25:33;22.79;41.50
76751;SHT31;65216;51.090;-115.352;2023-07-02T06:28:01;22.79;41.45
76751;SHT31;65216;51.090;-115.352;2023-07-02T06:30:28;22.79;41.41
76751;SHT31;65216;51.090;-115.352;2023-07-02T06:32:55;22.79;41.37
76751;SHT31;65216;51.090;-115.352;2023-07-02T06:35:22;22.78;41.30
76751;SHT31;65216;51.090;-115.352;2023-07-02T06:37:49;22.78;41.27
76751;SHT31;65216;51.090;-115.352;2023-07-02T06:40:16;22.77;41.18
76751;SHT31;65216;51.090;-115.352;2023-07-02T06:42:43;22.77;41.10
76751;SHT31;65216;51.090;-115.352;2023-07-02T06:45:10;22.77;41.01
76751;SHT31;65216;51.090;-115.352;2023-07-02T06:47:37;22.78;40.93
76751;SHT31;65216;51.090;-115.352;2023-07-02T06:50:04;22.77;40.89
76751;SHT31;65216;51.090;-115.352;2023-07-02T06:52:32;22.76;40.82
76751;SHT31;65216;51.090;-115.352;2023-07-02T06:55:01;22.76;40.79
76751;SHT31;65216;51.090;-115.352;2023-07-02T06:57:29;22.75;40.70
76751;SHT31;65216;51.090;-115.352;2023-07-02T06:59:59;22.75;40.68
76751;SHT31;65216;51.090;-115.352;2023-07-02T07:02:29;22.75;40.60
76751;SHT31;65216;51.090;-115.352;2023-07-02T07:04:56;22.73;40.56
76751;SHT31;65216;51.090;-115.352;2023-07-02T07:07:25;22.73;40.48
76751;SHT31;65216;51.090;-115.352;2023-07-02T07:09:53;22.72;40.41
76751;SHT31;65216;51.090;-115.352;2023-07-02T07:12:20;22.73;40.34
76751;SHT31;65216;51.090;-115.352;2023-07-02T07:14:47;22.72;40.31
76751;SHT31;65216;51.090;-115.352;2023-07-02T07:17:17;22.72;40.24
76751;SHT31;65216;51.090;-115.352;2023-07-02T07:19:44;22.71;40.17
76751;SHT31;65216;51.090;-115.352;2023-07-02T07:22:11;22.71;40.10
76751;SHT31;65216;51.090;-115.352;2023-07-02T07:24:37;22.71;40.08
76751;SHT31;65216;51.090;-115.352;2023-07-02T07:27:05;22.70;40.03
76751;SHT31;65216;51.090;-115.352;2023-07-02T07:29:33;22.69;39.96
76751;SHT31;65216;51.090;-115.352;2023-07-02T07:32:00;22.67;39.90
76751;SHT31;65216;51.090;-115.352;2023-07-02T07:34:29;22.67;39.83
76751;SHT31;65216;51.090;-115.352;2023-07-02T07:36:56;22.66;39.79
76751;SHT31;65216;51.090;-115.352;2023-07-02T07:39:23;22.65;39.73
76751;SHT31;65216;51.090;-115.352;2023-07-02T07:41:50;22.65;39.66
76751;SHT31;65216;51.090;-115.352;2023-07-02T07:44:17;22.64;39.61
76751;SHT31;65216;51.090;-115.352;2023-07-02T07:46:44;22.64;39.56
76751;SHT31;65216;51.090;-115.352;2023-07-02T07:49:14;22.63;39.47
76751;SHT31;65216;51.090;-115.352;2023-07-02T07:51:43;22.62;39.40
76751;SHT31;65216;51.090;-115.352;2023-07-02T07:54:10;22.61;39.34
76751;SHT31;65216;51.090;-115.352;2023-07-02T07:56:37;22.62;39.24
76751;SHT31;65216;51.090;-115.352;2023-07-02T07:59:07;22.60;39.14
76751;SHT31;65216;51.090;-115.352;2023-07-02T08:01:36;22.60;39.04
76751;SHT31;65216;51.090;-115.352;2023-07-02T08:04:06;22.61;38.97
76751;SHT31;65216;51.090;-115.352;2023-07-02T08:06:33;22.60;38.87
76751;SHT31;65216;51.090;-115.352;2023-07-02T08:09:02;22.61;38.78
76751;SHT31;65216;51.090;-115.352;2023-07-02T08:11:32;22.60;38.70
76751;SHT31;65216;51.090;-115.352;2023-07-02T08:14:04;22.58;38.58
76751;SHT31;65216;51.090;-115.352;2023-07-02T08:16:31;22.57;38.50
76751;SHT31;65216;51.090;-115.352;2023-07-02T08:19:00;22.57;38.41
76751;SHT31;65216;51.090;-115.352;2023-07-02T08:21:28;22.58;38.33
76751;SHT31;65216;51.090;-115.352;2023-07-02T08:23:55;22.57;38.24
76751;SHT31;65216;51.090;-115.352;2023-07-02T08:26:23;22.57;38.15
76751;SHT31;65216;51.090;-115.352;2023-07-02T08:28:50;22.56;38.03
76751;SHT31;65216;51.090;-115.352;2023-07-02T08:31:17;22.54;37.98
76751;SHT31;65216;51.090;-115.352;2023-07-02T08:33:44;22.54;37.87
76751;SHT31;65216;51.090;-115.352;2023-07-02T08:36:11;22.53;37.79
76751;SHT31;65216;51.090;-115.352;2023-07-02T08:38:39;22.52;37.68
76751;SHT31;65216;51.090;-115.352;2023-07-02T08:41:08;22.53;37.59
76751;SHT31;65216;51.090;-115.352;2023-07-02T08:43:35;22.51;37.53
76751;SHT31;65216;51.090;-115.352;2023-07-02T08:46:04;22.52;37.45
76751;SHT31;65216;51.090;-115.352;2023-07-02T08:48:33;22.51;37.39
76751;SHT31;65216;51.090;-115.352;2023-07-02T08:51:02;22.50;37.33
76751;SHT31;65216;51.090;-115.352;2023-07-02T08:53:29;22.50;37.27
76751;SHT31;65216;51.090;-115.352;2023-07-02T08:55:59;22.49;37.22
76751;SHT31;65216;51.090;-115.352;2023-07-02T08:58:29;22.50;37.19
76751;SHT31;65216;51.090;-115.352;2023-07-02T09:01:10;22.50;37.17
76751;SHT31;65216;51.090;-115.352;2023-07-02T09:03:41;22.48;37.08
76751;SHT31;65216;51.090;-115.352;2023-07-02T09:06:11;22.47;37.05
76751;SHT31;65216;51.090;-115.352;2023-07-02T09:08:38;22.47;37.01
76751;SHT31;65216;51.090;-115.352;2023-07-02T09:11:06;22.47;36.96
76751;SHT31;65216;51.090;-115.352;2023-07-02T09:16:32;22.47;36.85
76751;SHT31;65216;51.090;-115.352;2023-07-02T09:21:41;22.45;36.70
76751;SHT31;65216;51.090;-115.352;2023-07-02T09:24:18;22.44;36.64
76751;SHT31;65216;51.090;-115.352;2023-07-02T09:26:50;22.42;36.59
76751;SHT31;65216;51.090;-115.352;2023-07-02T09:29:22;22.40;36.54
76751;SHT31;65216;51.090;-115.352;2023-07-02T09:32:01;22.38;36.50
76751;SHT31;65216;51.090;-115.352;2023-07-02T09:34:35;22.38;36.41
76751;SHT31;65216;51.090;-115.352;2023-07-02T09:37:06;22.38;36.37
76751;SHT31;65216;51.090;-115.352;2023-07-02T09:39:33;22.38;36.29
76751;SHT31;65216;51.090;-115.352;2023-07-02T09:42:03;22.38;36.22
76751;SHT31;65216;51.090;-115.352;2023-07-02T09:44:36;22.38;36.16
76751;SHT31;65216;51.090;-115.352;2023-07-02T09:47:08;22.37;36.12
76751;SHT31;65216;51.090;-115.352;2023-07-02T09:49:59;22.37;36.05
76751;SHT31;65216;51.090;-115.352;2023-07-02T09:52:31;22.35;36.01
76751;SHT31;65216;51.090;-115.352;2023-07-02T09:55:02;22.35;35.98
76751;SHT31;65216;51.090;-115.352;2023-07-02T09:57:29;22.34;35.91
76751;SHT31;65216;51.090;-115.352;2023-07-02T09:59:58;22.34;35.89
76751;SHT31;65216;51.090;-115.352;2023-07-02T10:02:28;22.34;35.86
76751;SHT31;65216;51.090;-115.352;2023-07-02T10:04:55;22.34;35.80
76751;SHT31;65216;51.090;-115.352;2023-07-02T10:07:26;22.34;35.80
76751;SHT31;65216;51.090;-115.352;2023-07-02T10:09:55;22.34;35.80
76751;SHT31;65216;51.090;-115.352;2023-07-02T10:12:26;22.33;35.79
76751;SHT31;65216;51.090;-115.352;2023-07-02T10:14:57;22.31;35.76
76751;SHT31;65216;51.090;-115.352;2023-07-02T10:17:28;22.31;35.78
76751;SHT31;65216;51.090;-115.352;2023-07-02T10:19:57;22.30;35.76
76751;SHT31;65216;51.090;-115.352;2023-07-02T10:22:26;22.30;35.77
76751;SHT31;65216;51.090;-115.352;2023-07-02T10:24:57;22.29;35.77
76751;SHT31;65216;51.090;-115.352;2023-07-02T10:30:04;22.25;35.79
76751;SHT31;65216;51.090;-115.352;2023-07-02T10:32:34;22.22;35.83
76751;SHT31;65216;51.090;-115.352;2023-07-02T10:35:17;22.22;35.89
76751;SHT31;65216;51.090;-115.352;2023-07-02T10:37:45;22.20;35.86
76751;SHT31;65216;51.090;-115.352;2023-07-02T10:40:12;22.18;35.88
76751;SHT31;65216;51.090;-115.352;2023-07-02T10:42:49;22.17;35.90
76751;SHT31;65216;51.090;-115.352;2023-07-02T10:45:19;22.15;35.84
76751;SHT31;65216;51.090;-115.352;2023-07-02T10:47:58;22.14;35.85
76751;SHT31;65216;51.090;-115.352;2023-07-02T10:50:26;22.12;35.86
76751;SHT31;65216;51.090;-115.352;2023-07-02T10:52:53;22.10;35.86
76751;SHT31;65216;51.090;-115.352;2023-07-02T10:55:24;22.08;35.88
76751;SHT31;65216;51.090;-115.352;2023-07-02T10:58:03;22.07;35.90
76751;SHT31;65216;51.090;-115.352;2023-07-02T11:00:48;22.06;35.90
76751;SHT31;65216;51.090;-115.352;2023-07-02T11:03:17;22.05;35.90
76751;SHT31;65216;51.090;-115.352;2023-07-02T11:05:47;22.05;35.90
76751;SHT31;65216;51.090;-115.352;2023-07-02T11:08:15;22.03;35.90
76751;SHT31;65216;51.090;-115.352;2023-07-02T11:10:45;22.02;35.90
76751;SHT31;65216;51.090;-115.352;2023-07-02T11:13:14;22.00;35.90
76751;SHT31;65216;51.090;-115.352;2023-07-02T11:15:46;21.99;35.91
76751;SHT31;65216;51.090;-115.352;2023-07-02T11:18:14;21.99;35.90
76751;SHT31;65216;51.090;-115.352;2023-07-02T11:20:46;21.97;35.90
76751;SHT31;65216;51.090;-115.352;2023-07-02T11:28:24;21.94;35.92
76751;SHT31;65216;51.090;-115.352;2023-07-02T11:30:52;21.93;35.95
76751;SHT31;65216;51.090;-115.352;2023-07-02T11:33:21;21.92;35.95
76751;SHT31;65216;51.090;-115.352;2023-07-02T11:36:06;21.91;35.95
76751;SHT31;65216;51.090;-115.352;2023-07-02T11:38:45;21.90;35.98
76751;SHT31;65216;51.090;-115.352;2023-07-02T11:41:12;21.89;36.01
76751;SHT31;65216;51.090;-115.352;2023-07-02T11:43:40;21.89;36.00
76751;SHT31;65216;51.090;-115.352;2023-07-02T11:46:07;21.89;36.01
76751;SHT31;65216;51.090;-115.352;2023-07-02T11:48:36;21.88;36.03
76751;SHT31;65216;51.090;-115.352;2023-07-02T11:51:06;21.88;36.04
76751;SHT31;65216;51.090;-115.352;2023-07-02T11:53:33;21.87;36.07
76751;SHT31;65216;51.090;-115.352;2023-07-02T11:56:00;21.86;36.07
76751;SHT31;65216;51.090;-115.352;2023-07-02T11:58:27;21.86;36.09
76751;SHT31;65216;51.090;-115.352;2023-07-02T12:00:54;21.84;36.09
76751;SHT31;65216;51.090;-115.352;2023-07-02T12:03:21;21.85;36.10
76751;SHT31;65216;51.090;-115.352;2023-07-02T12:05:48;21.85;36.09
76751;SHT31;65216;51.090;-115.352;2023-07-02T12:08:15;21.84;36.10
76751;SHT31;65216;51.090;-115.352;2023-07-02T12:10:42;21.84;36.10
76751;SHT31;65216;51.090;-115.352;2023-07-02T12:13:12;21.83;36.15
76751;SHT31;65216;51.090;-115.352;2023-07-02T12:15:40;21.83;36.19
76751;SHT31;65216;51.090;-115.352;2023-07-02T12:18:07;21.81;36.20
76751;SHT31;65216;51.090;-115.352;2023-07-02T12:20:35;21.81;36.20
76751;SHT31;65216;51.090;-115.352;2023-07-02T12:23:05;21.82;36.22
76751;SHT31;65216;51.090;-115.352;2023-07-02T12:25:32;21.82;36.27
76751;SHT31;65216;51.090;-115.352;2023-07-02T12:27:59;21.82;36.29
76751;SHT31;65216;51.090;-115.352;2023-07-02T12:30:27;21.81;36.27
76751;SHT31;65216;51.090;-115.352;2023-07-02T12:32:54;21.81;36.24
76751;SHT31;65216;51.090;-115.352;2023-07-02T12:35:21;21.81;36.28
76751;SHT31;65216;51.090;-115.352;2023-07-02T12:37:49;21.81;36.26
76751;SHT31;65216;51.090;-115.352;2023-07-02T12:40:18;21.82;36.24
76751;SHT31;65216;51.090;-115.352;2023-07-02T12:42:48;21.81;36.21
76751;SHT31;65216;51.090;-115.352;2023-07-02T12:45:15;21.81;36.21
76751;SHT31;65216;51.090;-115.352;2023-07-02T12:47:42;21.80;36.20
76751;SHT31;65216;51.090;-115.352;2023-07-02T12:50:10;21.79;36.20
76751;SHT31;65216;51.090;-115.352;2023-07-02T12:52:37;21.79;36.24
76751;SHT31;65216;51.090;-115.352;2023-07-02T12:55:05;21.80;36.28
76751;SHT31;65216;51.090;-115.352;2023-07-02T12:57:32;21.80;36.27
76751;SHT31;65216;51.090;-115.352;2023-07-02T13:00:02;21.80;36.29
76751;SHT31;65216;51.090;-115.352;2023-07-02T13:02:34;21.80;36.29
76751;SHT31;65216;51.090;-115.352;2023-07-02T13:05:01;21.80;36.30
76751;SHT31;65216;51.090;-115.352;2023-07-02T13:07:28;21.80;36.31
76751;SHT31;65216;51.090;-115.352;2023-07-02T13:09:58;21.80;36.31
76751;SHT31;65216;51.090;-115.352;2023-07-02T13:12:26;21.81;36.33
76751;SHT31;65216;51.090;-115.352;2023-07-02T13:14:53;21.82;36.37
76751;SHT31;65216;51.090;-115.352;2023-07-02T13:17:20;21.82;36.35
76751;SHT31;65216;51.090;-115.352;2023-07-02T13:19:47;21.83;36.37
76751;SHT31;65216;51.090;-115.352;2023-07-02T13:22:14;21.84;36.37
76751;SHT31;65216;51.090;-115.352;2023-07-02T13:24:42;21.85;36.37
76751;SHT31;65216;51.090;-115.352;2023-07-02T13:27:12;21.85;36.38
76751;SHT31;65216;51.090;-115.352;2023-07-02T13:29:44;21.87;36.34
76751;SHT31;65216;51.090;-115.352;2023-07-02T13:32:11;21.88;36.37
76751;SHT31;65216;51.090;-115.352;2023-07-02T13:34:38;21.88;36.37
76751;SHT31;65216;51.090;-115.352;2023-07-02T13:37:05;21.89;36.33
76751;SHT31;65216;51.090;-115.352;2023-07-02T13:39:32;21.90;36.30
76751;SHT31;65216;51.090;-115.352;2023-07-02T13:41:59;21.90;36.30
76751;SHT31;65216;51.090;-115.352;2023-07-02T13:44:29;21.91;36.27
76751;SHT31;65216;51.090;-115.352;2023-07-02T13:46:56;21.91;36.30
76751;SHT31;65216;51.090;-115.352;2023-07-02T13:49:23;21.91;36.27
76751;SHT31;65216;51.090;-115.352;2023-07-02T13:51:53;21.93;36.25
76751;SHT31;65216;51.090;-115.352;2023-07-02T13:54:20;21.92;36.20
76751;SHT31;65216;51.090;-115.352;2023-07-02T13:56:47;21.93;36.21
76751;SHT31;65216;51.090;-115.352;2023-07-02T13:59:15;21.94;36.18
76751;SHT31;65216;51.090;-115.352;2023-07-02T14:01:43;21.95;36.18
76751;SHT31;65216;51.090;-115.352;2023-07-02T14:04:12;21.95;36.17
76751;SHT31;65216;51.090;-115.352;2023-07-02T14:06:41;21.95;36.17
76751;SHT31;65216;51.090;-115.352;2023-07-02T14:09:09;21.95;36.15
76751;SHT31;65216;51.090;-115.352;2023-07-02T14:11:38;21.95;36.17
76751;SHT31;65216;51.090;-115.352;2023-07-02T14:14:08;21.96;36.12
76751;SHT31;65216;51.090;-115.352;2023-07-02T14:16:38;21.96;36.10
76751;SHT31;65216;51.090;-115.352;2023-07-02T14:19:05;21.96;36.09
76751;SHT31;65216;51.090;-115.352;2023-07-02T14:21:35;21.96;36.10
76751;SHT31;65216;51.090;-115.352;2023-07-02T14:24:02;21.97;36.12
76751;SHT31;65216;51.090;-115.352;2023-07-02T14:26:30;21.97;36.16
76751;SHT31;65216;51.090;-115.352;2023-07-02T14:28:57;21.97;36.16
76751;SHT31;65216;51.090;-115.352;2023-07-02T14:31:24;21.96;36.18
76751;SHT31;65216;51.090;-115.352;2023-07-02T14:33:51;21.97;36.20
76751;SHT31;65216;51.090;-115.352;2023-07-02T14:36:18;21.97;36.20
76751;SHT31;65216;51.090;-115.352;2023-07-02T14:38:51;21.97;36.24
76751;SHT31;65216;51.090;-115.352;2023-07-02T14:41:18;21.97;36.23
76751;SHT31;65216;51.090;-115.352;2023-07-02T14:43:45;21.98;36.28
76751;SHT31;65216;51.090;-115.352;2023-07-02T14:46:12;21.98;36.30
76751;SHT31;65216;51.090;-115.352;2023-07-02T14:48:40;21.99;36.32
76751;SHT31;65216;51.090;-115.352;2023-07-02T14:51:16;22.00;36.34
76751;SHT31;65216;51.090;-115.352;2023-07-02T14:53:45;21.99;36.34
76751;SHT31;65216;51.090;-115.352;2023-07-02T14:56:15;21.99;36.37
76751;SHT31;65216;51.090;-115.352;2023-07-02T14:58:45;22.00;36.37
76751;SHT31;65216;51.090;-115.352;2023-07-02T15:01:12;22.00;36.40
76751;SHT31;65216;51.090;-115.352;2023-07-02T15:03:39;22.01;36.41
76751;SHT31;65216;51.090;-115.352;2023-07-02T15:06:07;22.01;36.41
76751;SHT31;65216;51.090;-115.352;2023-07-02T15:08:44;22.01;36.40
76751;SHT31;65216;51.090;-115.352;2023-07-02T15:11:13;22.02;36.37